createdAt,value
2018-08-03T00:06:49.613Z,22.80
2018-08-03T00:10:52.533Z,22.80
2018-08-03T00:14:55.487Z,22.70
2018-08-03T00:18:58.259Z,22.70
2018-08-03T00:23:01.133Z,22.60
2018-08-03T00:27:03.947Z,22.60
2018-08-03T00:31:06.766Z,22.50
2018-08-03T00:35:09.695Z,22.40
2018-08-03T00:39:12.541Z,22.40
2018-08-03T00:43:15.548Z,22.40
2018-08-03T00:47:18.407Z,22.30
2018-08-03T00:51:21.201Z,22.30
2018-08-03T00:55:23.984Z,22.10
2018-08-03T00:59:26.810Z,22.10
2018-08-03T01:03:29.528Z,22.00
2018-08-03T01:07:32.543Z,21.90
2018-08-03T01:11:35.603Z,21.90
2018-08-03T01:15:38.466Z,21.80
2018-08-03T01:19:41.218Z,21.80
2018-08-03T01:23:44.202Z,21.70
2018-08-03T01:27:47.121Z,21.70
2018-08-03T01:31:50.029Z,21.70
2018-08-03T01:35:52.948Z,21.60
2018-08-03T01:43:58.629Z,21.50
2018-08-03T01:48:01.501Z,21.50
2018-08-03T01:52:04.388Z,21.40
2018-08-03T01:56:07.369Z,21.40
2018-08-03T02:00:10.311Z,21.30
2018-08-03T02:08:15.905Z,21.20
2018-08-03T02:12:18.731Z,21.10
2018-08-03T02:16:21.692Z,21.00
2018-08-03T02:20:24.500Z,21.00
2018-08-03T02:24:27.390Z,20.90
2018-08-03T02:28:30.336Z,20.90
2018-08-03T02:32:33.305Z,20.90
2018-08-03T02:36:36.256Z,20.80
2018-08-03T02:40:39.140Z,20.80
2018-08-03T02:44:41.998Z,20.80
2018-08-03T02:48:44.970Z,20.90
2018-08-03T02:52:47.764Z,20.70
2018-08-03T02:56:50.552Z,20.70
2018-08-03T03:00:53.314Z,20.60
2018-08-03T03:04:56.114Z,20.60
2018-08-03T03:08:58.945Z,20.50
2018-08-03T03:13:01.665Z,20.50
2018-08-03T03:17:04.361Z,20.40
2018-08-03T03:21:07.119Z,20.40
2018-08-03T03:25:09.848Z,20.30
2018-08-03T03:29:12.813Z,20.30
2018-08-03T03:33:15.607Z,20.20
2018-08-03T03:37:18.436Z,20.20
2018-08-03T03:41:21.220Z,20.10
2018-08-03T03:45:24.001Z,20.10
2018-08-03T03:49:26.736Z,20.10
2018-08-03T03:53:29.474Z,20.10
2018-08-03T03:57:32.398Z,20.00
2018-08-03T04:01:35.188Z,20.00
2018-08-03T04:05:37.946Z,20.00
2018-08-03T04:09:40.731Z,19.90
2018-08-03T04:13:43.527Z,19.90
2018-08-03T04:17:46.312Z,19.90
2018-08-03T04:21:49.231Z,20.00
2018-08-03T04:25:52.063Z,20.00
2018-08-03T04:29:54.860Z,20.00
2018-08-03T04:33:57.676Z,20.10
2018-08-03T04:38:00.468Z,20.00
2018-08-03T04:42:03.298Z,20.10
2018-08-03T04:46:06.081Z,20.30
2018-08-03T04:50:08.895Z,20.50
2018-08-03T04:54:12.835Z,20.50
2018-08-03T04:58:15.648Z,20.80
2018-08-03T05:02:18.350Z,20.90
2018-08-03T05:06:21.095Z,20.90
2018-08-03T05:10:23.879Z,20.90
2018-08-03T05:14:26.672Z,21.10
2018-08-03T05:18:29.409Z,21.30
2018-08-03T05:26:34.778Z,21.80
2018-08-03T05:30:37.571Z,21.90
2018-08-03T05:34:40.307Z,21.90
2018-08-03T05:38:43.066Z,22.20
2018-08-03T05:42:45.872Z,22.40
2018-08-03T05:46:48.571Z,22.80
2018-08-03T05:50:51.304Z,23.10
2018-08-03T05:54:54.084Z,23.50
2018-08-03T05:58:56.824Z,23.70
2018-08-03T06:02:59.671Z,23.70
2018-08-03T06:07:02.416Z,23.80
2018-08-03T06:11:05.209Z,24.00
2018-08-03T06:15:09.128Z,24.30
2018-08-03T06:19:12.004Z,24.70
2018-08-03T06:23:14.764Z,24.80
2018-08-03T06:27:17.495Z,25.20
2018-08-03T06:31:20.309Z,25.40
2018-08-03T06:35:23.044Z,25.50
2018-08-03T06:39:25.800Z,25.80
2018-08-03T06:43:28.626Z,26.10
2018-08-03T06:47:31.350Z,26.30
2018-08-03T06:51:34.100Z,26.80
2018-08-03T06:55:37.004Z,26.50
2018-08-03T06:59:39.789Z,26.40
2018-08-03T07:03:43.077Z,26.60
2018-08-03T07:07:45.952Z,26.90
2018-08-03T07:11:48.754Z,27.70
2018-08-03T07:15:51.518Z,28.10
2018-08-03T07:19:54.446Z,28.50
2018-08-03T07:23:57.213Z,28.80
2018-08-03T07:27:59.986Z,28.80
2018-08-03T07:32:02.773Z,28.90
2018-08-03T07:36:05.529Z,29.10
2018-08-03T07:40:08.405Z,29.50
2018-08-03T07:44:11.162Z,29.60
2018-08-03T07:48:14.013Z,30.00
2018-08-03T07:52:16.892Z,30.50
2018-08-03T07:56:19.869Z,30.10
2018-08-03T08:00:22.619Z,29.90
2018-08-03T08:04:25.386Z,30.30
2018-08-03T08:08:28.150Z,31.30
2018-08-03T08:12:30.841Z,31.40
2018-08-03T08:16:33.609Z,31.90
2018-08-03T08:20:36.338Z,32.40
2018-08-03T08:24:39.427Z,31.80
2018-08-03T08:28:42.263Z,31.70
2018-08-03T08:32:44.988Z,32.10
2018-08-03T08:36:47.733Z,32.20
2018-08-03T08:40:51.168Z,32.20
2018-08-03T08:44:53.928Z,33.00
2018-08-03T08:48:56.732Z,32.80
2018-08-03T08:52:59.518Z,32.90
2018-08-03T08:57:02.318Z,33.30
2018-08-03T09:01:05.159Z,33.40
2018-08-03T09:05:08.170Z,33.50
2018-08-03T09:09:11.532Z,33.80
2018-08-03T09:13:14.362Z,34.20
2018-08-03T09:17:17.122Z,35.00
2018-08-03T09:21:19.887Z,34.40
2018-08-03T09:25:22.689Z,34.90
2018-08-03T09:29:25.375Z,35.10
2018-08-03T09:33:28.133Z,35.10
2018-08-03T09:37:30.850Z,35.80
2018-08-03T09:41:33.647Z,35.30
2018-08-03T09:45:36.418Z,34.90
2018-08-03T09:49:39.181Z,35.30
2018-08-03T09:53:41.914Z,35.10
2018-08-03T09:57:44.656Z,34.60
2018-08-03T10:01:47.456Z,34.70
2018-08-03T10:05:50.256Z,35.40
2018-08-03T10:09:53.176Z,35.30
2018-08-03T10:13:55.891Z,35.60
2018-08-03T10:17:58.654Z,35.60
2018-08-03T10:22:02.568Z,35.50
2018-08-03T10:26:05.357Z,35.50
2018-08-03T10:30:08.119Z,35.50
2018-08-03T10:34:10.888Z,35.10
2018-08-03T10:38:13.797Z,35.50
2018-08-03T10:42:16.541Z,36.00
2018-08-03T10:46:19.288Z,35.90
2018-08-03T10:50:22.251Z,34.70
2018-08-03T10:54:24.956Z,35.70
2018-08-03T10:58:27.657Z,35.90
2018-08-03T11:02:30.415Z,35.50
2018-08-03T11:06:33.080Z,34.60
2018-08-03T11:10:35.871Z,34.40
2018-08-03T11:18:41.509Z,35.50
2018-08-03T11:22:44.381Z,36.00
2018-08-03T11:26:47.146Z,35.70
2018-08-03T11:30:49.880Z,35.10
2018-08-03T11:34:52.606Z,36.40
2018-08-03T11:38:55.300Z,36.20
2018-08-03T11:42:58.220Z,36.90
2018-08-03T11:47:00.925Z,36.70
2018-08-03T11:51:03.645Z,36.40
2018-08-03T11:55:06.650Z,35.60
2018-08-03T11:59:09.359Z,35.30
2018-08-03T12:03:12.871Z,35.20
2018-08-03T12:07:15.662Z,34.90
2018-08-03T12:11:18.558Z,36.10
2018-08-03T12:15:21.346Z,36.00
2018-08-03T12:19:25.012Z,35.80
2018-08-03T12:23:28.208Z,34.70
2018-08-03T12:27:31.032Z,34.70
2018-08-03T12:31:34.202Z,34.90
2018-08-03T12:35:37.067Z,35.50
2018-08-03T12:39:40.091Z,35.80
2018-08-03T12:43:42.897Z,36.70
2018-08-03T12:47:45.601Z,36.50
2018-08-03T12:51:48.332Z,36.80
2018-08-03T12:55:51.018Z,36.30
2018-08-03T12:59:53.792Z,36.30
2018-08-03T13:03:56.564Z,36.50
2018-08-03T13:07:59.399Z,36.90
2018-08-03T13:12:01.949Z,36.90
2018-08-03T13:16:04.923Z,36.70
2018-08-03T13:20:07.682Z,36.90
2018-08-03T13:24:10.501Z,36.40
2018-08-03T13:28:13.246Z,35.60
2018-08-03T13:32:15.969Z,35.50
2018-08-03T13:36:18.896Z,35.20
2018-08-03T13:40:23.156Z,34.70
2018-08-03T13:44:25.992Z,34.30
2018-08-03T13:48:28.838Z,34.20
2018-08-03T13:52:31.666Z,34.30
2018-08-03T13:56:34.411Z,34.80
2018-08-03T14:00:37.425Z,34.80
2018-08-03T14:04:40.143Z,35.40
2018-08-03T14:08:46.588Z,35.70
2018-08-03T14:12:49.334Z,35.90
2018-08-03T14:16:52.233Z,36.00
2018-08-03T14:20:55.259Z,36.00
2018-08-03T14:24:58.170Z,36.30
2018-08-03T14:29:00.953Z,35.80
2018-08-03T14:33:04.334Z,35.90
2018-08-03T14:37:07.177Z,35.70
2018-08-03T14:41:10.101Z,35.70
2018-08-03T14:45:12.964Z,36.10
2018-08-03T14:49:15.807Z,36.10
2018-08-03T14:53:18.992Z,36.00
2018-08-03T14:57:21.847Z,35.80
2018-08-03T15:01:24.758Z,35.90
2018-08-03T15:09:38.376Z,35.40
2018-08-03T15:13:41.195Z,35.40
2018-08-03T15:17:43.956Z,35.60
2018-08-03T15:21:46.832Z,35.50
2018-08-03T15:25:49.594Z,35.40
2018-08-03T15:29:52.416Z,35.40
2018-08-03T15:33:55.153Z,35.50
2018-08-03T15:37:58.313Z,35.20
2018-08-03T15:42:01.166Z,35.30
2018-08-03T15:46:03.901Z,35.30
2018-08-03T15:50:06.876Z,35.20
2018-08-03T15:54:09.613Z,35.00
2018-08-03T15:58:12.432Z,34.80
2018-08-03T16:02:15.168Z,34.80
2018-08-03T16:06:17.900Z,34.40
2018-08-03T16:10:20.601Z,34.20
2018-08-03T16:14:23.316Z,34.10
2018-08-03T16:18:26.013Z,34.00
2018-08-03T16:22:29.006Z,33.80
2018-08-03T16:26:31.793Z,33.50
2018-08-03T16:30:34.548Z,33.40
2018-08-03T16:34:37.262Z,33.30
2018-08-03T16:38:40.041Z,33.20
2018-08-03T16:42:42.846Z,33.20
2018-08-03T16:46:45.591Z,33.20
2018-08-03T16:50:48.322Z,33.40
2018-08-03T16:54:51.421Z,33.40
2018-08-03T16:58:54.650Z,33.50
2018-08-03T17:02:57.412Z,33.50
2018-08-03T17:07:00.129Z,33.40
2018-08-03T17:11:02.895Z,33.40
2018-08-03T17:15:05.700Z,33.30
2018-08-03T17:19:08.488Z,33.20
2018-08-03T17:23:11.255Z,33.20
2018-08-03T17:27:14.016Z,33.00
2018-08-03T17:31:16.808Z,32.90
2018-08-03T17:35:19.752Z,32.70
2018-08-03T17:39:22.510Z,32.60
2018-08-03T17:43:25.411Z,32.60
2018-08-03T17:47:28.223Z,32.60
2018-08-03T17:51:30.962Z,32.40
2018-08-03T17:55:33.813Z,32.40
2018-08-03T17:59:36.581Z,32.20
2018-08-03T18:03:39.419Z,32.10
2018-08-03T18:07:42.229Z,32.00
2018-08-03T18:11:44.955Z,31.90
2018-08-03T18:15:47.754Z,31.70
2018-08-03T18:19:50.507Z,31.50
2018-08-03T18:23:53.340Z,31.40
2018-08-03T18:27:56.078Z,31.30
2018-08-03T18:31:58.922Z,31.10
2018-08-03T18:36:01.963Z,31.10
2018-08-03T18:40:07.286Z,30.90
2018-08-03T18:44:10.492Z,30.80
2018-08-03T18:48:13.289Z,30.70
2018-08-03T18:52:16.092Z,30.60
2018-08-03T18:56:19.600Z,30.40
2018-08-03T19:00:22.381Z,30.40
2018-08-03T19:04:25.133Z,30.20
2018-08-03T19:08:27.947Z,30.10
2018-08-03T19:12:30.676Z,29.90
2018-08-03T19:16:33.407Z,29.80
2018-08-03T19:20:36.204Z,29.50
2018-08-03T19:24:39.422Z,29.40
2018-08-03T19:28:42.284Z,29.20
2018-08-03T19:32:45.070Z,29.10
2018-08-03T19:36:47.917Z,29.00
2018-08-03T19:40:50.824Z,28.90
2018-08-03T19:44:53.551Z,28.80
2018-08-03T19:48:57.497Z,28.70
2018-08-03T19:53:00.295Z,28.50
2018-08-03T19:57:03.069Z,28.50
2018-08-03T20:01:05.816Z,28.30
2018-08-03T20:05:15.748Z,28.20
2018-08-03T20:09:18.594Z,28.10
2018-08-03T20:13:21.382Z,28.00
2018-08-03T20:17:24.326Z,27.90
2018-08-03T20:21:27.196Z,27.80
2018-08-03T20:25:30.098Z,27.70
2018-08-03T20:29:32.855Z,27.70
2018-08-03T20:33:35.555Z,27.60
2018-08-03T20:37:38.322Z,27.50
2018-08-03T20:41:41.085Z,27.40
2018-08-03T20:45:43.831Z,27.20
2018-08-03T20:49:47.313Z,27.10
2018-08-03T20:53:50.016Z,27.00
2018-08-03T20:57:52.742Z,26.90
2018-08-03T21:01:55.593Z,26.80
2018-08-03T21:05:58.501Z,26.70
2018-08-03T21:10:01.908Z,26.50
2018-08-03T21:14:04.872Z,26.50
2018-08-03T21:18:07.616Z,26.40
2018-08-03T21:22:10.486Z,26.30
2018-08-03T21:26:13.308Z,26.30
2018-08-03T21:30:16.085Z,26.20
2018-08-03T21:34:18.795Z,26.10
2018-08-03T21:38:21.602Z,26.00
2018-08-03T21:42:24.461Z,25.90
2018-08-03T21:50:29.840Z,25.80
2018-08-03T21:54:32.505Z,25.70
2018-08-03T21:58:35.223Z,25.60
2018-08-03T22:02:37.988Z,25.60
2018-08-03T22:06:40.707Z,25.50
2018-08-03T22:10:43.481Z,25.40
2018-08-03T22:14:46.289Z,25.30
2018-08-03T22:18:49.111Z,25.30
2018-08-03T22:22:51.868Z,25.20
2018-08-03T22:26:54.689Z,25.10
2018-08-03T22:30:57.474Z,25.00
2018-08-03T22:35:00.268Z,24.90
2018-08-03T22:39:04.462Z,24.80
2018-08-03T22:43:07.341Z,24.80
2018-08-03T22:47:10.229Z,24.70
2018-08-03T22:51:12.993Z,24.60
2018-08-03T22:55:15.657Z,24.60
2018-08-03T22:59:18.362Z,24.50
2018-08-03T23:03:21.087Z,24.50
2018-08-03T23:07:23.897Z,24.30
2018-08-03T23:11:26.659Z,24.20
2018-08-03T23:15:29.594Z,24.20
2018-08-03T23:19:32.500Z,24.20
2018-08-03T23:23:35.275Z,24.10
2018-08-03T23:27:38.026Z,24.00
2018-08-03T23:31:40.810Z,23.90
2018-08-03T23:35:43.576Z,23.90
2018-08-03T23:39:46.353Z,23.80
2018-08-03T23:43:49.194Z,23.70
2018-08-03T23:47:52.085Z,23.70
2018-08-03T23:51:54.924Z,23.70
2018-08-03T23:55:57.700Z,23.50
